Estación Meteorológica Peña el Pijo (Robertgarden) [ 11/30/23 14:29:43 CET ]

Fecha Hora Presion(HPa) Temp (°C) Humedad % Rocio (°C) Viento ( m/s) Direccion Lluvia 1Hora(mm) Lluvia 24H(mm) LLuvia Total(mm)
2011-Jul-28 01:01:13 1013.400 18.4 79 14.7         118.62
2011-Jul-28 02:01:16 1013.400 17.3 82 14.2         118.62
2011-Jul-28 03:01:17 1013.500 16.3 85 13.8         118.62
2011-Jul-28 04:01:16 1013.600 15.6 86 13.3         118.62
2011-Jul-28 05:01:12 1013.400 14.9 87 12.8         118.62
2011-Jul-28 06:01:17 1013.400 15.2 88 13.2         118.62
2011-Jul-28 07:01:15 1013.300 14.9 88 12.9         118.62
2011-Jul-28 08:01:13 1013.700 15.3 90 13.7         118.62
2011-Jul-28 09:01:16 1013.800 19.8 81 16.5         118.62
2011-Jul-28 10:01:12 1013.900 24.2 64 16.9         118.62
2011-Jul-28 11:01:13 1013.800 27.3 53 16.8         118.62
2011-Jul-28 12:01:16 1013.800 29.6 47 17.1         118.62
2011-Jul-28 13:01:15 1013.500 31.1 41 16.3         118.62
2011-Jul-28 14:01:18 1013.200 32.7 37 16.0         118.62
2011-Jul-28 15:01:16 1013.100 30.2 41 15.5         118.62
2011-Jul-28 16:01:13 1012.800 31.3 41 16.5         118.62
2011-Jul-28 17:01:47 1012.400 32.8 37 16.1         118.62
2011-Jul-28 18:01:44 1012.000 31.2 41 16.4         118.62
2011-Jul-28 19:01:42 1012.100 28.1 50 16.7 2.7 ENE     118.62
2011-Jul-28 20:01:50 1012.500 27.9 50 16.5 1.2 E     118.62
2011-Jul-28 21:01:15 1012.900 25.4 57 16.2         118.62
2011-Jul-28 22:01:16 1013.600 23.4 64 16.2         118.62
2011-Jul-28 23:01:17 1014.300 21.8 68 15.6         118.62

Temperatura Máxima:32°    Temperatura Mínima:14°
Presión Máxima:1014.300 Hpa    Presión Mínima:1012.000 Hpa


Volver